createdAt,value
2022-10-18T00:02:03.916Z,97803.22
2022-10-18T00:04:30.430Z,97805.13
2022-10-18T00:06:57.066Z,97800.56
2022-10-18T00:09:23.503Z,97804.81
2022-10-18T00:11:49.894Z,97798.44
2022-10-18T00:14:16.289Z,97806.41
2022-10-18T00:16:42.683Z,97800.56
2022-10-18T00:19:09.250Z,97785.94
2022-10-18T00:21:35.706Z,97797.91
2022-10-18T00:24:02.250Z,97797.88
2022-10-18T00:26:30.509Z,97798.44
2022-10-18T00:28:59.655Z,97794.44
2022-10-18T00:31:32.082Z,97785.41
2022-10-18T00:34:01.259Z,97779.31
2022-10-18T00:36:29.783Z,97785.94
2022-10-18T00:38:56.394Z,97789.63
2022-10-18T00:41:27.076Z,97787.22
2022-10-18T00:44:01.058Z,97786.69
2022-10-18T00:46:49.295Z,97783.22
2022-10-18T00:49:19.607Z,97780.28
2022-10-18T00:51:49.990Z,97783.00
2022-10-18T00:54:17.570Z,97790.97
2022-10-18T00:56:45.371Z,97780.03
2022-10-18T00:59:15.029Z,97767.56
2022-10-18T01:01:41.561Z,97766.75
2022-10-18T01:04:08.327Z,97772.34
2022-10-18T01:09:38.045Z,97772.03
2022-10-18T01:12:23.078Z,97763.28
2022-10-18T01:14:56.115Z,97763.28
2022-10-18T01:17:50.553Z,97764.88
2022-10-18T01:20:33.867Z,97761.16
2022-10-18T01:23:15.487Z,97761.66
2022-10-18T01:26:12.241Z,97747.31
2022-10-18T01:28:56.834Z,97739.63
2022-10-18T01:31:43.553Z,97748.63
2022-10-18T01:34:14.838Z,97748.34
2022-10-18T01:36:46.002Z,97744.41
2022-10-18T01:39:16.870Z,97742.00
2022-10-18T01:41:45.365Z,97746.72
2022-10-18T01:44:16.627Z,97741.38
2022-10-18T01:46:45.121Z,97742.22
2022-10-18T01:49:11.517Z,97744.56
2022-10-18T01:51:38.123Z,97744.09
2022-10-18T01:54:05.079Z,97746.72
2022-10-18T01:56:31.448Z,97741.16
2022-10-18T01:59:17.165Z,97735.59
2022-10-18T02:02:05.846Z,97733.47
2022-10-18T02:05:06.749Z,97735.59
2022-10-18T02:07:39.348Z,97734.47
2022-10-18T02:10:25.029Z,97727.31
2022-10-18T02:12:54.005Z,97712.13
2022-10-18T02:15:35.872Z,97722.28
2022-10-18T02:18:08.489Z,97718.56
2022-10-18T02:20:36.546Z,97716.97
2022-10-18T02:23:06.325Z,97709.53
2022-10-18T02:25:35.280Z,97708.47
2022-10-18T02:28:03.384Z,97709.50
2022-10-18T02:30:37.187Z,97699.94
2022-10-18T02:33:17.829Z,97698.59
2022-10-18T02:35:52.959Z,97685.81
2022-10-18T02:38:20.976Z,97695.66
2022-10-18T02:40:47.372Z,97688.47
2022-10-18T02:43:14.180Z,97687.97
2022-10-18T02:45:40.783Z,97674.41
2022-10-18T02:48:07.593Z,97679.44
2022-10-18T02:50:34.025Z,97668.59
2022-10-18T02:53:00.385Z,97666.97
2022-10-18T02:55:26.778Z,97671.47
2022-10-18T02:57:53.268Z,97683.66
2022-10-18T03:00:19.765Z,97686.59
2022-10-18T03:02:46.174Z,97689.00
2022-10-18T03:05:12.646Z,97694.44
2022-10-18T03:07:39.029Z,97686.50
2022-10-18T03:10:05.951Z,97697.19
2022-10-18T03:12:32.388Z,97694.53
2022-10-18T03:14:58.764Z,97694.53
2022-10-18T03:17:25.193Z,97702.19
2022-10-18T03:19:51.576Z,97697.66
2022-10-18T03:22:17.964Z,97692.94
2022-10-18T03:24:45.455Z,97695.03
2022-10-18T03:27:11.845Z,97698.78
2022-10-18T03:29:38.221Z,97696.13
2022-10-18T03:32:04.762Z,97698.44
2022-10-18T03:34:31.151Z,97694.97
2022-10-18T03:37:00.902Z,97704.53
2022-10-18T03:39:29.884Z,97696.00
2022-10-18T03:41:56.284Z,97702.44
2022-10-18T03:44:22.798Z,97706.97
2022-10-18T03:46:49.295Z,97711.38
2022-10-18T03:49:15.793Z,97698.44
2022-10-18T03:51:42.159Z,97696.66
2022-10-18T03:54:08.610Z,97699.06
2022-10-18T03:56:35.022Z,97697.75
2022-10-18T03:59:02.676Z,97700.34
2022-10-18T04:01:29.160Z,97706.13
2022-10-18T04:03:55.564Z,97702.59
2022-10-18T04:06:22.051Z,97707.66
2022-10-18T04:08:48.490Z,97702.91
2022-10-18T04:11:15.049Z,97699.19
2022-10-18T04:13:41.582Z,97692.81
2022-10-18T04:16:07.972Z,97696.06
2022-10-18T04:18:34.350Z,97692.06
2022-10-18T04:21:00.735Z,97691.25
2022-10-18T04:23:27.119Z,97695.53
2022-10-18T04:25:53.600Z,97692.56
2022-10-18T04:28:19.989Z,97693.06
2022-10-18T04:30:52.885Z,97696.00
2022-10-18T04:33:20.100Z,97694.16
2022-10-18T04:35:47.077Z,97693.63
2022-10-18T04:38:16.475Z,97693.28
2022-10-18T04:40:42.864Z,97694.88
2022-10-18T04:43:09.401Z,97703.97
2022-10-18T04:45:36.142Z,97687.22
2022-10-18T04:48:02.773Z,97689.63
2022-10-18T04:50:29.150Z,97692.53
2022-10-18T04:52:55.528Z,97688.78
2022-10-18T04:55:22.079Z,97684.59
2022-10-18T04:57:48.766Z,97688.56
2022-10-18T05:00:15.493Z,97691.72
2022-10-18T05:02:42.078Z,97694.34
2022-10-18T05:05:11.638Z,97692.25
2022-10-18T05:07:40.416Z,97696.25
2022-10-18T05:10:07.499Z,97691.19
2022-10-18T05:12:34.362Z,97680.31
2022-10-18T05:15:00.968Z,97682.97
2022-10-18T05:17:27.358Z,97689.06
2022-10-18T05:19:53.779Z,97678.88
2022-10-18T05:22:20.247Z,97688.22
2022-10-18T05:24:46.698Z,97680.81
2022-10-18T05:27:13.064Z,97686.94
2022-10-18T05:29:39.597Z,97683.69
2022-10-18T05:32:06.029Z,97693.28
2022-10-18T05:34:32.992Z,97691.19
2022-10-18T05:36:59.737Z,97685.53
2022-10-18T05:39:26.259Z,97685.03
2022-10-18T05:41:52.631Z,97678.38
2022-10-18T05:44:19.082Z,97670.91
2022-10-18T05:46:45.441Z,97663.25
2022-10-18T05:49:12.462Z,97665.09
2022-10-18T05:51:38.917Z,97671.66
2022-10-18T05:54:05.311Z,97667.41
2022-10-18T05:56:31.942Z,97665.13
2022-10-18T05:58:58.440Z,97681.03
2022-10-18T06:01:24.803Z,97676.28
2022-10-18T06:03:51.225Z,97678.44
2022-10-18T06:06:17.627Z,97671.53
2022-10-18T06:08:44.501Z,97668.88
2022-10-18T06:11:16.357Z,97667.31
2022-10-18T06:13:47.939Z,97668.34
2022-10-18T06:16:16.542Z,97673.09
2022-10-18T06:18:43.222Z,97685.56
2022-10-18T06:21:10.009Z,97677.31
2022-10-18T06:23:36.701Z,97687.66
2022-10-18T06:26:08.176Z,97673.06
2022-10-18T06:28:36.256Z,97672.03
2022-10-18T06:31:04.532Z,97670.97
2022-10-18T06:33:32.108Z,97674.19
2022-10-18T06:36:00.620Z,97671.00
2022-10-18T06:38:28.492Z,97680.00
2022-10-18T06:40:55.686Z,97677.59
2022-10-18T06:43:22.514Z,97682.72
2022-10-18T06:45:49.592Z,97681.66
2022-10-18T06:48:16.669Z,97683.25
2022-10-18T06:50:43.216Z,97682.94
2022-10-18T06:53:09.700Z,97684.56
2022-10-18T06:55:36.165Z,97690.75
2022-10-18T06:58:02.749Z,97691.28
2022-10-18T07:00:29.189Z,97688.13
2022-10-18T07:02:57.154Z,97690.97
2022-10-18T07:05:23.761Z,97697.19
2022-10-18T07:07:54.194Z,97697.19
2022-10-18T07:10:23.408Z,97697.75
2022-10-18T07:12:50.369Z,97696.19
2022-10-18T07:15:18.010Z,97696.13
2022-10-18T07:17:47.809Z,97701.44
2022-10-18T07:20:14.358Z,97698.03
2022-10-18T07:22:40.886Z,97699.69
2022-10-18T07:25:07.697Z,97698.84
2022-10-18T07:27:38.380Z,97708.16
2022-10-18T07:30:06.525Z,97705.28
2022-10-18T07:32:33.301Z,97693.06
2022-10-18T07:34:59.843Z,97701.56
2022-10-18T07:37:27.940Z,97694.41
2022-10-18T07:39:56.496Z,97702.63
2022-10-18T07:42:23.004Z,97704.25
2022-10-18T07:44:49.408Z,97709.03
2022-10-18T07:47:15.825Z,97706.13
2022-10-18T07:49:42.188Z,97703.72
2022-10-18T07:52:08.613Z,97705.59
2022-10-18T07:54:35.023Z,97693.91
2022-10-18T07:57:01.385Z,97692.03
2022-10-18T07:59:27.826Z,97689.94
2022-10-18T08:01:54.299Z,97694.72
2022-10-18T08:04:20.740Z,97689.94
2022-10-18T08:06:47.672Z,97686.19
2022-10-18T08:09:14.126Z,97684.34
2022-10-18T08:11:40.512Z,97681.41
2022-10-18T08:14:06.933Z,97675.56
2022-10-18T08:16:33.474Z,97676.59
2022-10-18T08:19:00.249Z,97678.19
2022-10-18T08:21:26.996Z,97668.09
2022-10-18T08:23:53.884Z,97672.91
2022-10-18T08:26:21.901Z,97669.16
2022-10-18T08:28:58.262Z,97662.22
2022-10-18T08:31:35.733Z,97668.06
2022-10-18T08:34:02.122Z,97664.06
2022-10-18T08:36:28.556Z,97664.06
2022-10-18T08:38:54.983Z,97661.69
2022-10-18T08:41:27.366Z,97652.59
2022-10-18T08:44:07.184Z,97643.78
2022-10-18T08:46:36.321Z,97643.53
2022-10-18T08:49:05.440Z,97649.06
2022-10-18T08:51:58.757Z,97653.59
2022-10-18T08:54:43.514Z,97654.13
2022-10-18T08:57:14.553Z,97654.06
2022-10-18T08:59:42.074Z,97649.56
2022-10-18T09:02:43.923Z,97650.34
2022-10-18T09:05:35.787Z,97644.72
2022-10-18T09:08:26.998Z,97643.66
2022-10-18T09:11:05.499Z,97636.41
2022-10-18T09:13:59.172Z,97635.84
2022-10-18T09:16:54.264Z,97630.25
2022-10-18T09:19:35.586Z,97628.88
2022-10-18T09:22:12.984Z,97630.97
2022-10-18T09:24:44.539Z,97630.41
2022-10-18T09:27:16.854Z,97633.56
2022-10-18T09:30:13.366Z,97629.25
2022-10-18T09:32:55.253Z,97636.75
2022-10-18T09:35:25.628Z,97629.25
2022-10-18T09:38:02.165Z,97620.72
2022-10-18T09:40:32.984Z,97622.22
2022-10-18T09:43:03.089Z,97614.22
2022-10-18T09:45:39.529Z,97622.19
2022-10-18T09:48:06.081Z,97609.09
2022-10-18T09:50:39.666Z,97615.69
2022-10-18T09:53:32.817Z,97616.19
2022-10-18T09:56:04.765Z,97609.75
2022-10-18T09:58:41.610Z,97611.59
2022-10-18T10:01:10.176Z,97618.16
2022-10-18T10:03:36.948Z,97609.09
2022-10-18T10:06:16.617Z,97612.28
2022-10-18T10:08:47.574Z,97614.84
2022-10-18T10:11:32.210Z,97608.56
2022-10-18T10:14:13.519Z,97605.84
2022-10-18T10:16:46.886Z,97614.59
2022-10-18T10:19:30.436Z,97603.91
2022-10-18T10:22:25.981Z,97600.63
2022-10-18T10:24:54.982Z,97595.53
2022-10-18T10:27:32.708Z,97592.34
2022-10-18T10:30:05.747Z,97594.69
2022-10-18T10:32:46.742Z,97590.41
2022-10-18T10:35:34.059Z,97594.38
2022-10-18T10:38:23.775Z,97586.63
2022-10-18T10:40:50.375Z,97590.13
2022-10-18T10:43:43.032Z,97580.78
2022-10-18T10:46:12.035Z,97578.03
2022-10-18T10:49:00.350Z,97576.16
2022-10-18T10:51:40.124Z,97560.84
2022-10-18T10:54:15.805Z,97556.38
2022-10-18T10:56:54.469Z,97552.19
2022-10-18T10:59:23.984Z,97545.19
2022-10-18T11:02:12.396Z,97538.75
2022-10-18T11:04:38.762Z,97538.47
2022-10-18T11:07:40.100Z,97536.50
2022-10-18T11:10:09.562Z,97529.28
2022-10-18T11:12:45.396Z,97526.25
2022-10-18T11:15:14.390Z,97525.47
2022-10-18T11:18:18.489Z,97514.16
2022-10-18T11:20:50.987Z,97512.66
2022-10-18T11:23:19.111Z,97515.56
2022-10-18T11:26:10.640Z,97503.97
2022-10-18T11:28:36.993Z,97502.88
2022-10-18T11:31:09.480Z,97507.56
2022-10-18T11:34:08.264Z,97494.19
2022-10-18T11:36:46.200Z,97487.69
2022-10-18T11:39:56.266Z,97481.53
2022-10-18T11:42:44.084Z,97481.94
2022-10-18T11:45:10.389Z,97478.16
2022-10-18T11:47:52.215Z,97472.81
2022-10-18T11:50:48.623Z,97465.91
2022-10-18T11:53:27.292Z,97464.94
2022-10-18T11:56:10.760Z,97463.91
2022-10-18T11:59:05.159Z,97460.25
2022-10-18T12:01:40.294Z,97457.97
2022-10-18T12:04:14.300Z,97448.03
2022-10-18T12:06:43.297Z,97448.22
2022-10-18T12:09:36.379Z,97445.81
2022-10-18T12:12:09.579Z,97447.44
2022-10-18T12:14:38.788Z,97436.00
2022-10-18T12:17:40.743Z,97433.78
2022-10-18T12:20:15.212Z,97431.06
2022-10-18T12:23:01.084Z,97422.47
2022-10-18T12:25:30.286Z,97423.03
2022-10-18T12:28:05.710Z,97415.22
2022-10-18T12:30:51.978Z,97407.69
2022-10-18T12:33:28.846Z,97400.84
2022-10-18T12:36:04.428Z,97403.03
2022-10-18T12:38:33.219Z,97398.75
2022-10-18T12:41:00.686Z,97398.19
2022-10-18T12:43:34.070Z,97402.34
2022-10-18T12:46:02.343Z,97393.81
2022-10-18T12:48:33.495Z,97377.91
2022-10-18T12:51:15.176Z,97376.75
2022-10-18T12:53:45.842Z,97375.25
2022-10-18T12:56:36.848Z,97370.28
2022-10-18T12:59:15.329Z,97363.81
2022-10-18T13:01:50.535Z,97359.69
2022-10-18T13:04:29.491Z,97365.03
2022-10-18T13:06:59.478Z,97351.94
2022-10-18T13:09:38.161Z,97357.47
2022-10-18T13:12:10.352Z,97354.31
2022-10-18T13:15:21.102Z,97352.22
2022-10-18T13:18:21.533Z,97349.84
2022-10-18T13:21:10.487Z,97345.38
2022-10-18T13:23:47.206Z,97341.50
2022-10-18T13:26:40.165Z,97337.66
2022-10-18T13:29:06.624Z,97340.63
2022-10-18T13:31:48.604Z,97333.97
2022-10-18T13:34:24.226Z,97344.41
2022-10-18T13:36:58.972Z,97340.84
2022-10-18T13:39:26.027Z,97338.44
2022-10-18T13:41:56.662Z,97333.25
2022-10-18T13:44:28.714Z,97333.38
2022-10-18T13:46:55.031Z,97327.13
2022-10-18T13:49:39.732Z,97321.47
2022-10-18T13:52:54.438Z,97322.25
2022-10-18T13:55:35.872Z,97318.59
2022-10-18T13:58:17.578Z,97319.53
2022-10-18T14:01:02.891Z,97323.16
2022-10-18T14:04:04.155Z,97323.16
2022-10-18T14:06:41.242Z,97315.81
2022-10-18T14:09:26.055Z,97311.84
2022-10-18T14:12:21.597Z,97314.06
2022-10-18T14:14:57.817Z,97318.91
2022-10-18T14:17:51.188Z,97315.91
2022-10-18T14:21:12.813Z,97316.53
2022-10-18T14:23:44.592Z,97314.75
2022-10-18T14:26:19.827Z,97313.47
2022-10-18T14:29:15.785Z,97307.81
2022-10-18T14:31:43.406Z,97308.09
2022-10-18T14:34:15.259Z,97315.06
2022-10-18T14:36:45.690Z,97314.84
2022-10-18T14:39:28.077Z,97306.13
2022-10-18T14:41:57.973Z,97307.91
2022-10-18T14:44:28.761Z,97304.06
2022-10-18T14:47:03.630Z,97300.00
2022-10-18T14:49:31.015Z,97298.44
2022-10-18T14:52:01.105Z,97297.63
2022-10-18T14:54:33.440Z,97296.81
2022-10-18T14:57:04.627Z,97292.06
2022-10-18T14:59:37.561Z,97293.28
2022-10-18T15:02:15.216Z,97297.25
2022-10-18T15:04:44.929Z,97293.19
2022-10-18T15:07:16.899Z,97289.50
2022-10-18T15:09:44.534Z,97291.69
2022-10-18T15:12:14.358Z,97284.75
2022-10-18T15:14:42.384Z,97289.72
2022-10-18T15:17:16.915Z,97286.88
2022-10-18T15:19:58.488Z,97281.69
2022-10-18T15:22:32.139Z,97280.31
2022-10-18T15:25:34.449Z,97290.03
2022-10-18T15:28:01.793Z,97283.94
2022-10-18T15:30:42.546Z,97289.78
2022-10-18T15:33:22.221Z,97287.53
2022-10-18T15:35:48.934Z,97290.50
2022-10-18T15:38:24.161Z,97289.03
2022-10-18T15:40:50.654Z,97285.16
2022-10-18T15:43:23.224Z,97285.88
2022-10-18T15:45:52.653Z,97284.09
2022-10-18T15:48:26.190Z,97282.19
2022-10-18T15:50:55.727Z,97290.50
2022-10-18T15:53:25.510Z,97288.53
2022-10-18T15:56:02.575Z,97281.59
2022-10-18T15:58:50.639Z,97286.53
2022-10-18T16:01:21.542Z,97281.00
2022-10-18T16:03:50.105Z,97288.53
2022-10-18T16:06:18.299Z,97280.88
2022-10-18T16:08:51.183Z,97280.78
2022-10-18T16:11:25.389Z,97284.91
2022-10-18T16:13:55.169Z,97283.91
2022-10-18T16:16:26.570Z,97280.25
2022-10-18T16:18:53.557Z,97290.53
2022-10-18T16:21:21.208Z,97294.34
2022-10-18T16:23:48.657Z,97295.22
2022-10-18T16:26:16.840Z,97296.88
2022-10-18T16:28:44.203Z,97294.00
2022-10-18T16:31:16.670Z,97294.09
2022-10-18T16:33:43.935Z,97294.66
2022-10-18T16:36:19.344Z,97300.28
2022-10-18T16:38:46.781Z,97297.41
2022-10-18T16:41:15.740Z,97304.13
2022-10-18T16:43:44.047Z,97298.59
2022-10-18T16:46:15.928Z,97305.56
2022-10-18T16:48:42.839Z,97303.00
2022-10-18T16:51:10.441Z,97308.19
2022-10-18T16:53:36.834Z,97302.03
2022-10-18T16:56:05.445Z,97309.78
2022-10-18T16:58:33.387Z,97315.31
2022-10-18T17:01:01.912Z,97309.78
2022-10-18T17:03:30.563Z,97316.47
2022-10-18T17:05:57.008Z,97314.97
2022-10-18T17:08:26.815Z,97315.03
2022-10-18T17:10:56.797Z,97320.94
2022-10-18T17:13:25.094Z,97319.94
2022-10-18T17:15:52.668Z,97327.44
2022-10-18T17:18:23.288Z,97326.97
2022-10-18T17:20:49.980Z,97323.25
2022-10-18T17:23:16.512Z,97322.66
2022-10-18T17:25:57.804Z,97326.97
2022-10-18T17:28:32.974Z,97333.63
2022-10-18T17:30:59.413Z,97331.31
2022-10-18T17:33:25.793Z,97332.09
2022-10-18T17:35:52.236Z,97332.56
2022-10-18T17:38:18.657Z,97332.03
2022-10-18T17:40:45.028Z,97326.69
2022-10-18T17:43:13.523Z,97332.34
2022-10-18T17:45:51.095Z,97326.44
2022-10-18T17:48:17.813Z,97326.44
2022-10-18T17:50:44.289Z,97329.09
2022-10-18T17:53:11.971Z,97329.16
2022-10-18T17:55:39.121Z,97327.81
2022-10-18T17:58:05.715Z,97335.31
2022-10-18T18:00:32.154Z,97322.91
2022-10-18T18:02:59.950Z,97326.31
2022-10-18T18:05:30.760Z,97336.97
2022-10-18T18:08:02.746Z,97330.84
2022-10-18T18:10:32.806Z,97335.47
2022-10-18T18:12:59.226Z,97341.84
2022-10-18T18:15:25.754Z,97342.88
2022-10-18T18:17:57.021Z,97334.25
2022-10-18T18:20:24.615Z,97337.66
2022-10-18T18:22:51.605Z,97335.78
2022-10-18T18:25:18.210Z,97339.03
2022-10-18T18:27:44.657Z,97345.25
2022-10-18T18:30:11.600Z,97343.38
2022-10-18T18:32:38.110Z,97342.59
2022-10-18T18:35:04.907Z,97341.22
2022-10-18T18:37:31.293Z,97342.22
2022-10-18T18:39:57.795Z,97339.97
2022-10-18T18:42:24.262Z,97343.25
2022-10-18T18:44:50.646Z,97345.34
2022-10-18T18:47:19.420Z,97347.44
2022-10-18T18:49:45.800Z,97346.38
2022-10-18T18:52:12.166Z,97350.63
2022-10-18T18:54:38.535Z,97346.38
2022-10-18T18:57:06.343Z,97351.72
2022-10-18T18:59:32.767Z,97351.72
2022-10-18T19:01:59.304Z,97350.69
2022-10-18T19:04:25.954Z,97346.47
2022-10-18T19:06:52.435Z,97353.63
2022-10-18T19:09:20.634Z,97347.00
2022-10-18T19:11:49.176Z,97348.72
2022-10-18T19:14:16.681Z,97346.56
2022-10-18T19:16:51.828Z,97344.47
2022-10-18T19:19:20.338Z,97342.34
2022-10-18T19:21:52.732Z,97341.28
2022-10-18T19:24:21.115Z,97351.44
2022-10-18T19:26:50.523Z,97352.50
2022-10-18T19:29:25.669Z,97355.66
2022-10-18T19:31:53.798Z,97354.09
2022-10-18T19:34:22.065Z,97352.00
2022-10-18T19:36:50.255Z,97354.66
2022-10-18T19:39:19.593Z,97360.81
2022-10-18T19:41:51.974Z,97351.44
2022-10-18T19:44:19.853Z,97352.06
2022-10-18T19:46:47.088Z,97352.03
2022-10-18T19:49:13.759Z,97345.06
2022-10-18T19:51:40.508Z,97353.00
2022-10-18T19:54:07.477Z,97350.38
2022-10-18T19:56:33.968Z,97342.72
2022-10-18T19:59:00.403Z,97346.06
2022-10-18T20:01:28.312Z,97347.09
2022-10-18T20:03:55.292Z,97353.19
2022-10-18T20:06:22.093Z,97354.00
2022-10-18T20:08:48.704Z,97353.19
2022-10-18T20:11:18.870Z,97353.69
2022-10-18T20:13:45.280Z,97355.66
2022-10-18T20:16:13.682Z,97350.31
2022-10-18T20:18:42.980Z,97350.81
2022-10-18T20:21:14.688Z,97360.63
2022-10-18T20:23:43.180Z,97366.56
2022-10-18T20:26:20.481Z,97360.41
2022-10-18T20:28:49.122Z,97364.38
2022-10-18T20:31:18.540Z,97356.97
2022-10-18T20:33:46.470Z,97362.28
2022-10-18T20:36:18.832Z,97367.16
2022-10-18T20:38:47.103Z,97362.09
2022-10-18T20:41:19.604Z,97360.56
2022-10-18T20:43:51.891Z,97357.06
2022-10-18T20:46:18.542Z,97362.38
2022-10-18T20:48:44.927Z,97360.78
2022-10-18T20:51:14.703Z,97359.75
2022-10-18T20:53:41.164Z,97370.34
2022-10-18T20:56:10.519Z,97359.19
2022-10-18T20:58:38.892Z,97360.50
2022-10-18T21:01:10.026Z,97357.94
2022-10-18T21:03:38.208Z,97370.41
2022-10-18T21:06:13.255Z,97361.97
2022-10-18T21:08:40.436Z,97362.47
2022-10-18T21:11:07.229Z,97358.75
2022-10-18T21:13:34.130Z,97353.19
2022-10-18T21:16:01.358Z,97355.53
2022-10-18T21:18:29.705Z,97356.31
2022-10-18T21:21:06.033Z,97350.75
2022-10-18T21:23:32.494Z,97350.25
2022-10-18T21:25:58.876Z,97351.94
2022-10-18T21:28:25.303Z,97344.97
2022-10-18T21:30:51.731Z,97348.13
2022-10-18T21:33:18.149Z,97343.66
2022-10-18T21:35:44.571Z,97349.16
2022-10-18T21:38:11.003Z,97349.19
2022-10-18T21:40:39.690Z,97346.00
2022-10-18T21:43:06.191Z,97343.63
2022-10-18T21:45:32.571Z,97338.59
2022-10-18T21:47:58.948Z,97339.41
2022-10-18T21:50:25.428Z,97338.09
2022-10-18T21:52:51.815Z,97341.00
2022-10-18T21:55:18.199Z,97331.69
2022-10-18T21:57:44.639Z,97330.59
2022-10-18T22:00:11.963Z,97325.81
2022-10-18T22:02:38.354Z,97330.09
2022-10-18T22:05:08.272Z,97330.94
2022-10-18T22:07:37.839Z,97329.09
2022-10-18T22:10:04.449Z,97329.63
2022-10-18T22:12:30.848Z,97323.75
2022-10-18T22:14:57.224Z,97323.50
2022-10-18T22:17:23.697Z,97315.25
2022-10-18T22:19:50.099Z,97319.22
2022-10-18T22:22:16.539Z,97317.94
2022-10-18T22:24:42.895Z,97317.44
2022-10-18T22:27:09.321Z,97320.34
2022-10-18T22:29:35.685Z,97318.25
2022-10-18T22:32:02.041Z,97311.03
2022-10-18T22:34:28.474Z,97317.16
2022-10-18T22:36:55.422Z,97314.78
2022-10-18T22:39:21.963Z,97312.38
2022-10-18T22:41:52.032Z,97311.03
2022-10-18T22:44:18.451Z,97302.03
2022-10-18T22:46:44.832Z,97307.34
2022-10-18T22:49:12.205Z,97307.88
2022-10-18T22:51:38.632Z,97306.00
2022-10-18T22:54:05.091Z,97303.13
2022-10-18T22:56:31.517Z,97302.59
2022-10-18T22:58:57.944Z,97298.34
2022-10-18T23:01:24.658Z,97303.91
2022-10-18T23:03:59.095Z,97300.75
2022-10-18T23:06:31.048Z,97292.75
2022-10-18T23:08:59.630Z,97300.69
2022-10-18T23:11:28.186Z,97299.38
2022-10-18T23:13:54.862Z,97290.63
2022-10-18T23:16:21.876Z,97289.88
2022-10-18T23:18:50.902Z,97291.44
2022-10-18T23:21:17.792Z,97294.38
2022-10-18T23:23:44.443Z,97290.09
2022-10-18T23:26:15.160Z,97287.75
2022-10-18T23:28:43.860Z,97287.47
2022-10-18T23:31:13.424Z,97279.56
2022-10-18T23:33:41.310Z,97285.16
2022-10-18T23:36:08.463Z,97288.03
2022-10-18T23:38:36.096Z,97279.22
2022-10-18T23:41:03.082Z,97277.38
2022-10-18T23:43:29.492Z,97277.44
2022-10-18T23:45:56.106Z,97273.19
2022-10-18T23:48:22.496Z,97269.75
2022-10-18T23:50:49.071Z,97279.28
2022-10-18T23:53:15.565Z,97270.28
2022-10-18T23:56:12.653Z,97276.91
2022-10-18T23:58:39.731Z,97276.66
